createdAt,value
2023-03-24T00:10:12.526Z,51.959
2023-03-24T00:25:14.524Z,51.022
2023-03-24T00:40:16.614Z,49.62
2023-03-24T00:55:18.717Z,51.768
2023-03-24T01:10:20.809Z,52.879
2023-03-24T01:25:22.811Z,52.85
2023-03-24T01:40:24.945Z,52.523
2023-03-24T01:55:27.066Z,54.218
2023-03-24T02:10:29.154Z,55.456
2023-03-24T02:25:31.175Z,57.758
2023-03-24T02:40:33.227Z,55.193
2023-03-24T02:55:35.327Z,56.156
2023-03-24T03:10:37.664Z,64.838
2023-03-24T03:25:39.646Z,66.133
2023-03-24T03:40:41.675Z,61.347
2023-03-24T03:55:43.895Z,65.066
2023-03-24T04:10:46.013Z,65.96
2023-03-24T04:25:48.057Z,64.468
2023-03-24T04:40:50.056Z,64.486
2023-03-24T04:55:52.161Z,60.796
2023-03-24T05:10:54.155Z,63.008
2023-03-24T05:25:56.192Z,61.757
2023-03-24T05:40:58.238Z,60.063
2023-03-24T05:56:00.290Z,59.955
2023-03-24T06:11:02.258Z,61.861
2023-03-24T06:26:04.307Z,63.062
2023-03-24T06:41:06.317Z,61.747
2023-03-24T06:56:08.387Z,60.887
2023-03-24T07:11:10.485Z,60.575
2023-03-24T07:26:12.513Z,63.233
2023-03-24T07:41:14.519Z,61.072
2023-03-24T07:56:16.729Z,61.375
2023-03-24T08:11:18.746Z,64.966
2023-03-24T08:26:20.745Z,67.044
2023-03-24T08:41:22.981Z,66.808
2023-03-24T08:56:25.031Z,62.496
2023-03-24T09:11:27.096Z,67.639
2023-03-24T09:26:29.206Z,61.786
2023-03-24T09:41:32.553Z,63.541
2023-03-24T09:56:36.544Z,63.331
2023-03-24T10:11:38.559Z,68.031
2023-03-24T10:26:40.697Z,67.152
2023-03-24T10:41:42.781Z,68.359
2023-03-24T10:56:45.035Z,62.779
2023-03-24T11:11:47.110Z,65.829
2023-03-24T11:26:49.219Z,66.47
2023-03-24T11:41:51.268Z,63.462
2023-03-24T11:56:53.490Z,64.762
2023-03-24T12:11:55.531Z,68.052
2023-03-24T12:26:57.543Z,68.961
2023-03-24T12:41:59.605Z,69.546
2023-03-24T12:57:01.603Z,65.344
2023-03-24T13:12:03.633Z,67.712
2023-03-24T13:27:05.680Z,71.451
2023-03-24T13:42:07.722Z,72.614
2023-03-24T13:57:09.804Z,71.043
2023-03-24T14:12:11.975Z,69.141
2023-03-24T14:27:13.980Z,68.693
2023-03-24T14:42:16.016Z,70.841
2023-03-24T14:57:18.232Z,69.628
2023-03-24T15:12:20.237Z,69.33
2023-03-24T15:27:22.278Z,69.01
2023-03-24T15:42:24.481Z,68.463
2023-03-24T15:57:26.652Z,68.602
2023-03-24T16:12:28.802Z,70.098
2023-03-24T16:27:30.816Z,69.319
2023-03-24T16:42:32.896Z,68.411
2023-03-24T16:57:35.735Z,66.946
2023-03-24T17:12:39.420Z,65.55
2023-03-24T17:27:41.503Z,65.59
2023-03-24T17:42:45.798Z,64.947
2023-03-24T17:57:48.527Z,63.955
2023-03-24T18:12:50.893Z,62.824
2023-03-24T18:27:52.941Z,63.658
2023-03-24T18:42:55.097Z,64.111
2023-03-24T18:57:57.130Z,64.081
2023-03-24T19:12:59.169Z,62.738
2023-03-24T19:28:01.165Z,64.672
2023-03-24T19:43:03.143Z,62.399
2023-03-24T19:58:05.210Z,61.825
2023-03-24T20:13:07.339Z,62.263
2023-03-24T20:28:09.381Z,60.578
2023-03-24T20:43:11.597Z,62.476
2023-03-24T20:58:13.629Z,60.141
2023-03-24T21:13:16.908Z,58.902
2023-03-24T21:28:19.249Z,59.414
2023-03-24T21:43:21.280Z,63.096
2023-03-24T21:58:23.383Z,61.909
2023-03-24T22:13:25.399Z,60.459
2023-03-24T22:28:27.484Z,62.723
2023-03-24T22:43:29.548Z,61.9
2023-03-24T22:58:31.634Z,67.218
2023-03-24T23:13:33.678Z,65.727
2023-03-24T23:28:35.743Z,63.048
2023-03-24T23:43:37.732Z,64.772
2023-03-24T23:58:40.000Z,62.513
